sensor_id;sensor_type;location;lat;lon;timestamp;pressure;altitude;pressure_sealevel;temperature;humidity
15604;BME280;7902;49.042;9.092;2023-03-01T00:02:21;99941.81;;;4.31;51.46
15604;BME280;7902;49.042;9.092;2023-03-01T00:04:47;99946.50;;;4.20;51.98
15604;BME280;7902;49.042;9.092;2023-03-01T00:07:13;99950.13;;;4.16;52.06
15604;BME280;7902;49.042;9.092;2023-03-01T00:09:39;99946.47;;;4.22;51.63
15604;BME280;7902;49.042;9.092;2023-03-01T00:12:06;99947.78;;;4.09;51.93
15604;BME280;7902;49.042;9.092;2023-03-01T00:14:32;99954.31;;;4.20;51.88
15604;BME280;7902;49.042;9.092;2023-03-01T00:16:58;99941.66;;;4.10;52.14
15604;BME280;7902;49.042;9.092;2023-03-01T00:19:24;99942.44;;;4.13;51.47
15604;BME280;7902;49.042;9.092;2023-03-01T00:21:50;99945.88;;;4.14;51.73
15604;BME280;7902;49.042;9.092;2023-03-01T00:24:16;99942.13;;;4.22;52.17
15604;BME280;7902;49.042;9.092;2023-03-01T00:26:42;99941.00;;;4.05;52.28
15604;BME280;7902;49.042;9.092;2023-03-01T00:29:08;99940.84;;;4.09;52.10
15604;BME280;7902;49.042;9.092;2023-03-01T00:31:34;99944.19;;;4.13;52.33
15604;BME280;7902;49.042;9.092;2023-03-01T00:34:03;99945.22;;;4.07;52.17
15604;BME280;7902;49.042;9.092;2023-03-01T00:36:32;99939.41;;;4.25;51.94
15604;BME280;7902;49.042;9.092;2023-03-01T00:38:59;99941.31;;;4.20;51.57
15604;BME280;7902;49.042;9.092;2023-03-01T00:41:25;99944.69;;;3.97;52.29
15604;BME280;7902;49.042;9.092;2023-03-01T00:43:55;99949.69;;;4.04;51.95
15604;BME280;7902;49.042;9.092;2023-03-01T00:46:23;99951.44;;;4.03;52.54
15604;BME280;7902;49.042;9.092;2023-03-01T00:48:50;99958.47;;;4.00;52.69
15604;BME280;7902;49.042;9.092;2023-03-01T00:51:19;99953.38;;;3.96;52.47
15604;BME280;7902;49.042;9.092;2023-03-01T00:53:46;99954.41;;;3.91;52.30
15604;BME280;7902;49.042;9.092;2023-03-01T00:56:14;99951.03;;;3.89;52.82
15604;BME280;7902;49.042;9.092;2023-03-01T00:58:40;99950.16;;;3.88;52.46
15604;BME280;7902;49.042;9.092;2023-03-01T01:01:09;99941.66;;;3.83;52.60
15604;BME280;7902;49.042;9.092;2023-03-01T01:03:53;99944.16;;;3.86;52.77
15604;BME280;7902;49.042;9.092;2023-03-01T01:06:40;99941.56;;;3.86;52.72
15604;BME280;7902;49.042;9.092;2023-03-01T01:09:09;99944.13;;;3.88;52.98
15604;BME280;7902;49.042;9.092;2023-03-01T01:11:44;99939.72;;;3.90;52.54
15604;BME280;7902;49.042;9.092;2023-03-01T01:14:10;99943.66;;;3.75;52.89
15604;BME280;7902;49.042;9.092;2023-03-01T01:16:36;99942.81;;;3.75;52.92
15604;BME280;7902;49.042;9.092;2023-03-01T01:19:02;99941.34;;;3.66;52.69
15604;BME280;7902;49.042;9.092;2023-03-01T01:21:28;99942.72;;;3.78;53.16
15604;BME280;7902;49.042;9.092;2023-03-01T01:23:54;99942.72;;;3.78;52.98
15604;BME280;7902;49.042;9.092;2023-03-01T01:26:26;99942.28;;;3.64;53.60
15604;BME280;7902;49.042;9.092;2023-03-01T01:28:53;99940.72;;;3.58;53.60
15604;BME280;7902;49.042;9.092;2023-03-01T01:31:19;99931.72;;;3.70;53.31
15604;BME280;7902;49.042;9.092;2023-03-01T01:33:46;99927.59;;;3.63;53.70
15604;BME280;7902;49.042;9.092;2023-03-01T01:36:12;99917.69;;;3.75;53.32
15604;BME280;7902;49.042;9.092;2023-03-01T01:38:38;99918.31;;;3.82;52.77
15604;BME280;7902;49.042;9.092;2023-03-01T01:41:05;99917.59;;;3.78;52.50
15604;BME280;7902;49.042;9.092;2023-03-01T01:43:35;99915.84;;;3.79;53.06
15604;BME280;7902;49.042;9.092;2023-03-01T01:46:05;99905.72;;;3.71;53.01
15604;BME280;7902;49.042;9.092;2023-03-01T01:48:45;99907.50;;;3.69;53.51
15604;BME280;7902;49.042;9.092;2023-03-01T01:51:16;99899.00;;;3.64;53.19
15604;BME280;7902;49.042;9.092;2023-03-01T01:53:45;99896.56;;;3.58;53.73
15604;BME280;7902;49.042;9.092;2023-03-01T01:56:16;99891.25;;;3.63;53.28
15604;BME280;7902;49.042;9.092;2023-03-01T01:58:43;99890.50;;;3.59;53.15
15604;BME280;7902;49.042;9.092;2023-03-01T02:01:09;99890.72;;;3.53;53.41
15604;BME280;7902;49.042;9.092;2023-03-01T02:03:38;99888.13;;;3.53;53.95
15604;BME280;7902;49.042;9.092;2023-03-01T02:06:32;99881.06;;;3.57;53.48
15604;BME280;7902;49.042;9.092;2023-03-01T02:09:03;99883.88;;;3.49;53.69
15604;BME280;7902;49.042;9.092;2023-03-01T02:11:32;99878.41;;;3.58;53.43
15604;BME280;7902;49.042;9.092;2023-03-01T02:13:58;99874.28;;;3.52;53.33
15604;BME280;7902;49.042;9.092;2023-03-01T02:16:25;99875.13;;;3.53;53.28
15604;BME280;7902;49.042;9.092;2023-03-01T02:18:52;99869.88;;;3.54;53.23
15604;BME280;7902;49.042;9.092;2023-03-01T02:21:37;99858.69;;;3.52;53.42
15604;BME280;7902;49.042;9.092;2023-03-01T02:24:13;99866.72;;;3.45;53.94
15604;BME280;7902;49.042;9.092;2023-03-01T02:26:47;99855.28;;;3.50;53.87
15604;BME280;7902;49.042;9.092;2023-03-01T02:29:14;99851.84;;;3.50;53.88
15604;BME280;7902;49.042;9.092;2023-03-01T02:31:40;99852.94;;;3.43;53.73
15604;BME280;7902;49.042;9.092;2023-03-01T02:34:15;99846.91;;;3.42;53.74
15604;BME280;7902;49.042;9.092;2023-03-01T02:36:47;99844.91;;;3.50;53.64
15604;BME280;7902;49.042;9.092;2023-03-01T02:39:17;99844.00;;;3.51;53.57
15604;BME280;7902;49.042;9.092;2023-03-01T02:41:49;99825.69;;;3.56;53.71
15604;BME280;7902;49.042;9.092;2023-03-01T02:44:17;99824.13;;;3.50;53.97
15604;BME280;7902;49.042;9.092;2023-03-01T02:46:54;99830.28;;;3.48;53.64
15604;BME280;7902;49.042;9.092;2023-03-01T02:49:27;99829.34;;;3.49;53.66
15604;BME280;7902;49.042;9.092;2023-03-01T02:57:11;99820.38;;;3.33;54.42
15604;BME280;7902;49.042;9.092;2023-03-01T02:59:38;99824.63;;;3.35;54.23
15604;BME280;7902;49.042;9.092;2023-03-01T03:02:19;99816.94;;;3.32;54.19
15604;BME280;7902;49.042;9.092;2023-03-01T03:04:46;99821.97;;;3.37;53.80
15604;BME280;7902;49.042;9.092;2023-03-01T03:07:12;99819.19;;;3.43;54.02
15604;BME280;7902;49.042;9.092;2023-03-01T03:09:38;99822.78;;;3.39;54.09
15604;BME280;7902;49.042;9.092;2023-03-01T03:12:04;99817.38;;;3.45;53.85
15604;BME280;7902;49.042;9.092;2023-03-01T03:14:30;99818.38;;;3.41;53.57
15604;BME280;7902;49.042;9.092;2023-03-01T03:17:00;99819.13;;;3.44;53.71
15604;BME280;7902;49.042;9.092;2023-03-01T03:19:26;99815.69;;;3.44;53.28
15604;BME280;7902;49.042;9.092;2023-03-01T03:21:52;99815.78;;;3.41;54.18
15604;BME280;7902;49.042;9.092;2023-03-01T03:24:18;99811.59;;;3.37;54.53
15604;BME280;7902;49.042;9.092;2023-03-01T03:26:44;99808.41;;;3.29;54.06
15604;BME280;7902;49.042;9.092;2023-03-01T03:29:09;99819.28;;;3.40;54.31
15604;BME280;7902;49.042;9.092;2023-03-01T03:31:35;99813.19;;;3.41;54.21
15604;BME280;7902;49.042;9.092;2023-03-01T03:34:01;99808.16;;;3.36;53.99
15604;BME280;7902;49.042;9.092;2023-03-01T03:36:27;99810.59;;;3.41;54.76
15604;BME280;7902;49.042;9.092;2023-03-01T03:38:53;99805.44;;;3.39;54.03
15604;BME280;7902;49.042;9.092;2023-03-01T03:41:19;99811.88;;;3.28;53.88
15604;BME280;7902;49.042;9.092;2023-03-01T03:43:45;99808.28;;;3.32;54.46
15604;BME280;7902;49.042;9.092;2023-03-01T03:46:12;99803.41;;;3.23;54.68
15604;BME280;7902;49.042;9.092;2023-03-01T03:48:43;99794.19;;;3.13;54.54
15604;BME280;7902;49.042;9.092;2023-03-01T03:51:11;99794.78;;;3.21;54.26
15604;BME280;7902;49.042;9.092;2023-03-01T03:53:37;99792.41;;;3.15;54.81
15604;BME280;7902;49.042;9.092;2023-03-01T03:56:04;99795.09;;;3.12;54.83
15604;BME280;7902;49.042;9.092;2023-03-01T03:58:30;99790.19;;;3.02;54.90
15604;BME280;7902;49.042;9.092;2023-03-01T04:00:56;99796.19;;;3.04;54.79
15604;BME280;7902;49.042;9.092;2023-03-01T04:03:24;99785.72;;;3.07;54.70
15604;BME280;7902;49.042;9.092;2023-03-01T04:05:51;99791.72;;;3.09;54.72
15604;BME280;7902;49.042;9.092;2023-03-01T04:08:19;99780.94;;;2.94;55.11
15604;BME280;7902;49.042;9.092;2023-03-01T04:10:51;99784.16;;;3.02;55.28
15604;BME280;7902;49.042;9.092;2023-03-01T04:13:20;99780.75;;;3.00;54.61
15604;BME280;7902;49.042;9.092;2023-03-01T04:15:48;99785.84;;;3.03;55.08
15604;BME280;7902;49.042;9.092;2023-03-01T04:18:15;99784.38;;;2.94;55.31
15604;BME280;7902;49.042;9.092;2023-03-01T04:20:42;99784.06;;;3.05;54.68
15604;BME280;7902;49.042;9.092;2023-03-01T04:23:14;99791.31;;;2.94;54.97
15604;BME280;7902;49.042;9.092;2023-03-01T04:25:53;99787.16;;;2.88;55.15
15604;BME280;7902;49.042;9.092;2023-03-01T04:28:29;99772.16;;;2.98;54.71
15604;BME280;7902;49.042;9.092;2023-03-01T04:30:57;99783.41;;;2.98;54.78
15604;BME280;7902;49.042;9.092;2023-03-01T04:33:24;99783.44;;;2.97;54.85
15604;BME280;7902;49.042;9.092;2023-03-01T04:35:51;99777.34;;;2.98;54.83
15604;BME280;7902;49.042;9.092;2023-03-01T04:38:18;99785.38;;;2.90;55.23
15604;BME280;7902;49.042;9.092;2023-03-01T04:40:44;99787.72;;;2.98;54.54
15604;BME280;7902;49.042;9.092;2023-03-01T04:43:11;99784.50;;;2.91;55.12
15604;BME280;7902;49.042;9.092;2023-03-01T04:45:38;99783.69;;;2.89;54.71
15604;BME280;7902;49.042;9.092;2023-03-01T04:48:04;99789.00;;;2.85;55.59
15604;BME280;7902;49.042;9.092;2023-03-01T04:50:31;99791.75;;;2.80;55.61
15604;BME280;7902;49.042;9.092;2023-03-01T04:52:57;99801.16;;;2.83;55.80
15604;BME280;7902;49.042;9.092;2023-03-01T04:55:27;99802.00;;;2.83;55.32
15604;BME280;7902;49.042;9.092;2023-03-01T04:57:54;99806.47;;;2.78;55.58
15604;BME280;7902;49.042;9.092;2023-03-01T05:00:20;99800.38;;;2.81;54.94
15604;BME280;7902;49.042;9.092;2023-03-01T05:02:53;99803.97;;;2.77;55.26
15604;BME280;7902;49.042;9.092;2023-03-01T05:05:33;99797.91;;;2.76;55.16
15604;BME280;7902;49.042;9.092;2023-03-01T05:08:02;99799.41;;;2.83;55.18
15604;BME280;7902;49.042;9.092;2023-03-01T05:10:30;99793.47;;;2.80;55.11
15604;BME280;7902;49.042;9.092;2023-03-01T05:12:57;99791.63;;;2.83;55.15
15604;BME280;7902;49.042;9.092;2023-03-01T05:15:25;99797.09;;;2.74;55.75
15604;BME280;7902;49.042;9.092;2023-03-01T05:17:52;99795.94;;;2.84;55.42
15604;BME280;7902;49.042;9.092;2023-03-01T05:20:18;99790.03;;;2.79;55.86
15604;BME280;7902;49.042;9.092;2023-03-01T05:22:49;99784.06;;;2.77;55.69
15604;BME280;7902;49.042;9.092;2023-03-01T05:25:15;99783.84;;;2.83;54.89
15604;BME280;7902;49.042;9.092;2023-03-01T05:27:41;99787.50;;;2.78;54.88
15604;BME280;7902;49.042;9.092;2023-03-01T05:30:08;99790.13;;;2.76;54.87
15604;BME280;7902;49.042;9.092;2023-03-01T05:32:41;99779.75;;;2.76;55.77
15604;BME280;7902;49.042;9.092;2023-03-01T05:35:10;99782.34;;;2.76;55.13
15604;BME280;7902;49.042;9.092;2023-03-01T05:37:48;99781.47;;;2.77;55.15
15604;BME280;7902;49.042;9.092;2023-03-01T05:40:18;99779.72;;;2.78;55.49
15604;BME280;7902;49.042;9.092;2023-03-01T05:42:50;99779.22;;;2.65;55.81
15604;BME280;7902;49.042;9.092;2023-03-01T05:45:16;99777.63;;;2.61;55.62
15604;BME280;7902;49.042;9.092;2023-03-01T05:47:44;99779.22;;;2.65;55.23
15604;BME280;7902;49.042;9.092;2023-03-01T05:52:56;99777.38;;;2.69;55.10
15604;BME280;7902;49.042;9.092;2023-03-01T05:55:22;99775.00;;;2.62;55.75
15604;BME280;7902;49.042;9.092;2023-03-01T05:57:49;99779.22;;;2.65;55.57
15604;BME280;7902;49.042;9.092;2023-03-01T06:00:18;99780.25;;;2.59;55.34
15604;BME280;7902;49.042;9.092;2023-03-01T06:02:44;99779.19;;;2.67;55.38
15604;BME280;7902;49.042;9.092;2023-03-01T06:05:12;99780.19;;;2.62;56.00
15604;BME280;7902;49.042;9.092;2023-03-01T06:07:38;99786.13;;;2.66;55.69
15604;BME280;7902;49.042;9.092;2023-03-01T06:10:05;99794.56;;;2.73;55.48
15604;BME280;7902;49.042;9.092;2023-03-01T06:12:36;99796.19;;;2.77;55.10
15604;BME280;7902;49.042;9.092;2023-03-01T06:15:03;99789.25;;;2.77;55.13
15604;BME280;7902;49.042;9.092;2023-03-01T06:17:34;99787.50;;;2.78;55.68
15604;BME280;7902;49.042;9.092;2023-03-01T06:20:04;99781.41;;;2.79;55.99
15604;BME280;7902;49.042;9.092;2023-03-01T06:22:30;99781.59;;;2.73;55.96
15604;BME280;7902;49.042;9.092;2023-03-01T06:24:56;99790.31;;;2.70;55.94
15604;BME280;7902;49.042;9.092;2023-03-01T06:27:22;99782.34;;;2.76;55.64
15604;BME280;7902;49.042;9.092;2023-03-01T06:29:48;99783.84;;;2.83;55.29
15604;BME280;7902;49.042;9.092;2023-03-01T06:32:14;99780.09;;;2.93;54.93
15604;BME280;7902;49.042;9.092;2023-03-01T06:34:40;99779.44;;;2.87;55.33
15604;BME280;7902;49.042;9.092;2023-03-01T06:37:07;99782.94;;;2.86;55.69
15604;BME280;7902;49.042;9.092;2023-03-01T06:39:33;99776.47;;;2.99;55.33
15604;BME280;7902;49.042;9.092;2023-03-01T06:41:59;99780.09;;;2.93;55.24
15604;BME280;7902;49.042;9.092;2023-03-01T06:44:26;99774.03;;;2.94;55.59
15604;BME280;7902;49.042;9.092;2023-03-01T06:46:52;99770.38;;;3.00;54.92
15604;BME280;7902;49.042;9.092;2023-03-01T06:49:18;99771.31;;;2.97;55.69
15604;BME280;7902;49.042;9.092;2023-03-01T06:51:45;99766.75;;;3.05;55.05
15604;BME280;7902;49.042;9.092;2023-03-01T06:54:12;99768.56;;;3.02;55.31
15604;BME280;7902;49.042;9.092;2023-03-01T06:56:38;99778.88;;;3.05;54.80
15604;BME280;7902;49.042;9.092;2023-03-01T06:59:04;99772.03;;;3.02;54.77
15604;BME280;7902;49.042;9.092;2023-03-01T07:01:30;99766.94;;;2.99;54.91
15604;BME280;7902;49.042;9.092;2023-03-01T07:03:56;99775.75;;;2.94;55.12
15604;BME280;7902;49.042;9.092;2023-03-01T07:06:23;99766.94;;;2.99;55.41
15604;BME280;7902;49.042;9.092;2023-03-01T07:08:49;99770.38;;;3.00;54.98
15604;BME280;7902;49.042;9.092;2023-03-01T07:11:15;99765.19;;;3.00;55.02
15604;BME280;7902;49.042;9.092;2023-03-01T07:13:41;99757.41;;;3.00;55.13
15604;BME280;7902;49.042;9.092;2023-03-01T07:16:07;99761.75;;;2.99;55.55
15604;BME280;7902;49.042;9.092;2023-03-01T07:18:33;99757.91;;;3.11;55.56
15604;BME280;7902;49.042;9.092;2023-03-01T07:21:07;99757.16;;;3.07;55.39
15604;BME280;7902;49.042;9.092;2023-03-01T07:23:33;99756.09;;;3.15;55.21
15604;BME280;7902;49.042;9.092;2023-03-01T07:26:00;99748.19;;;3.18;55.04
15604;BME280;7902;49.042;9.092;2023-03-01T07:28:26;99745.34;;;3.25;54.71
15604;BME280;7902;49.042;9.092;2023-03-01T07:30:53;99747.19;;;3.22;55.16
15604;BME280;7902;49.042;9.092;2023-03-01T07:33:19;99745.28;;;3.27;55.08
15604;BME280;7902;49.042;9.092;2023-03-01T07:35:45;99745.69;;;3.41;54.77
15604;BME280;7902;49.042;9.092;2023-03-01T07:38:11;99752.47;;;3.45;54.92
15604;BME280;7902;49.042;9.092;2023-03-01T07:40:37;99749.25;;;3.63;54.22
15604;BME280;7902;49.042;9.092;2023-03-01T07:43:03;99747.19;;;3.73;54.10
15604;BME280;7902;49.042;9.092;2023-03-01T07:45:29;99751.47;;;3.75;53.86
15604;BME280;7902;49.042;9.092;2023-03-01T07:47:55;99736.47;;;3.82;53.62
15604;BME280;7902;49.042;9.092;2023-03-01T07:50:22;99748.91;;;3.98;53.56
15604;BME280;7902;49.042;9.092;2023-03-01T07:52:49;99744.47;;;4.01;53.49
15604;BME280;7902;49.042;9.092;2023-03-01T07:55:16;99738.50;;;3.98;53.43
15604;BME280;7902;49.042;9.092;2023-03-01T07:57:42;99729.69;;;4.03;53.42
15604;BME280;7902;49.042;9.092;2023-03-01T08:00:10;99731.44;;;4.02;53.57
15604;BME280;7902;49.042;9.092;2023-03-01T08:02:37;99726.38;;;4.22;53.38
15604;BME280;7902;49.042;9.092;2023-03-01T08:05:03;99724.34;;;4.07;53.54
15604;BME280;7902;49.042;9.092;2023-03-01T08:07:29;99729.38;;;4.12;53.13
15604;BME280;7902;49.042;9.092;2023-03-01T08:09:55;99718.06;;;4.13;53.43
15604;BME280;7902;49.042;9.092;2023-03-01T08:12:20;99719.66;;;4.17;53.50
15604;BME280;7902;49.042;9.092;2023-03-01T08:14:46;99722.97;;;4.20;53.51
15604;BME280;7902;49.042;9.092;2023-03-01T08:17:15;99722.03;;;4.23;53.36
15604;BME280;7902;49.042;9.092;2023-03-01T08:19:42;99718.38;;;4.28;53.07
15604;BME280;7902;49.042;9.092;2023-03-01T08:22:08;99726.00;;;4.33;53.11
15604;BME280;7902;49.042;9.092;2023-03-01T08:24:34;99724.63;;;4.46;52.75
15604;BME280;7902;49.042;9.092;2023-03-01T08:27:00;99713.16;;;4.52;52.86
15604;BME280;7902;49.042;9.092;2023-03-01T08:29:30;99711.19;;;4.57;52.51
15604;BME280;7902;49.042;9.092;2023-03-01T08:31:56;99704.41;;;4.53;52.77
15604;BME280;7902;49.042;9.092;2023-03-01T08:34:22;99706.75;;;4.60;52.59
15604;BME280;7902;49.042;9.092;2023-03-01T08:36:48;99706.75;;;4.60;52.72
15604;BME280;7902;49.042;9.092;2023-03-01T08:39:17;99714.38;;;4.65;52.33
15604;BME280;7902;49.042;9.092;2023-03-01T08:41:45;99712.25;;;4.74;52.21
15604;BME280;7902;49.042;9.092;2023-03-01T08:44:13;99712.53;;;4.67;52.30
15604;BME280;7902;49.042;9.092;2023-03-01T08:46:41;99705.16;;;4.78;51.98
15604;BME280;7902;49.042;9.092;2023-03-01T08:49:10;99702.06;;;4.90;52.12
15604;BME280;7902;49.042;9.092;2023-03-01T08:51:37;99709.69;;;4.95;52.02
15604;BME280;7902;49.042;9.092;2023-03-01T08:54:09;99705.53;;;4.91;51.88
15604;BME280;7902;49.042;9.092;2023-03-01T08:56:35;99694.50;;;5.06;51.39
15604;BME280;7902;49.042;9.092;2023-03-01T08:59:01;99703.88;;;5.10;51.39
15604;BME280;7902;49.042;9.092;2023-03-01T09:01:27;99690.75;;;5.13;51.60
15604;BME280;7902;49.042;9.092;2023-03-01T09:03:53;99692.56;;;5.11;51.62
15604;BME280;7902;49.042;9.092;2023-03-01T09:06:19;99695.69;;;5.19;51.62
15604;BME280;7902;49.042;9.092;2023-03-01T09:08:47;99701.75;;;5.19;51.27
15604;BME280;7902;49.042;9.092;2023-03-01T09:11:16;99696.69;;;5.16;51.39
15604;BME280;7902;49.042;9.092;2023-03-01T09:13:43;99693.50;;;5.30;50.88
15604;BME280;7902;49.042;9.092;2023-03-01T09:16:11;99688.03;;;5.36;51.04
15604;BME280;7902;49.042;9.092;2023-03-01T09:18:37;99693.34;;;5.33;51.26
15604;BME280;7902;49.042;9.092;2023-03-01T09:21:09;99687.44;;;5.29;51.10
15604;BME280;7902;49.042;9.092;2023-03-01T09:23:40;99685.44;;;5.36;51.41
15604;BME280;7902;49.042;9.092;2023-03-01T09:26:08;99677.75;;;5.33;51.17
15604;BME280;7902;49.042;9.092;2023-03-01T09:28:38;99678.63;;;5.32;51.28
15604;BME280;7902;49.042;9.092;2023-03-01T09:31:05;99672.78;;;5.47;51.16
15604;BME280;7902;49.042;9.092;2023-03-01T09:33:32;99661.16;;;5.36;51.22
15604;BME280;7902;49.042;9.092;2023-03-01T09:36:00;99676.13;;;5.51;51.28
15604;BME280;7902;49.042;9.092;2023-03-01T09:38:27;99656.59;;;5.41;51.23
15604;BME280;7902;49.042;9.092;2023-03-01T09:40:53;99650.09;;;5.51;51.07
15604;BME280;7902;49.042;9.092;2023-03-01T09:46:07;99659.50;;;5.53;51.24
15604;BME280;7902;49.042;9.092;2023-03-01T09:49:12;99652.28;;;5.60;50.62
15604;BME280;7902;49.042;9.092;2023-03-01T09:51:40;99643.88;;;5.53;51.53
15604;BME280;7902;49.042;9.092;2023-03-01T09:54:09;99647.28;;;5.55;51.13
15604;BME280;7902;49.042;9.092;2023-03-01T09:59:45;99642.88;;;5.76;50.95
15604;BME280;7902;49.042;9.092;2023-03-01T10:03:08;99643.50;;;5.62;50.95
15604;BME280;7902;49.042;9.092;2023-03-01T10:10:53;99634.94;;;5.79;51.23
15604;BME280;7902;49.042;9.092;2023-03-01T10:13:25;99630.69;;;5.77;50.97
15604;BME280;7902;49.042;9.092;2023-03-01T10:15:56;99628.78;;;5.80;51.28
15604;BME280;7902;49.042;9.092;2023-03-01T10:18:26;99618.00;;;5.89;50.82
15604;BME280;7902;49.042;9.092;2023-03-01T10:23:24;99620.53;;;5.91;50.71
15604;BME280;7902;49.042;9.092;2023-03-01T10:31:03;99598.19;;;6.04;50.78
15604;BME280;7902;49.042;9.092;2023-03-01T10:33:35;99602.50;;;6.05;50.75
15604;BME280;7902;49.042;9.092;2023-03-01T10:36:03;99595.69;;;6.02;51.25
15604;BME280;7902;49.042;9.092;2023-03-01T10:38:31;99597.06;;;6.09;51.08
15604;BME280;7902;49.042;9.092;2023-03-01T10:41:12;99591.94;;;6.08;50.86
15604;BME280;7902;49.042;9.092;2023-03-01T10:43:52;99588.28;;;6.12;50.75
15604;BME280;7902;49.042;9.092;2023-03-01T10:46:27;99587.22;;;6.16;50.51
15604;BME280;7902;49.042;9.092;2023-03-01T10:51:47;99572.28;;;6.01;50.64
15604;BME280;7902;49.042;9.092;2023-03-01T10:54:22;99572.69;;;6.10;50.77
15604;BME280;7902;49.042;9.092;2023-03-01T10:56:53;99576.91;;;6.13;50.66
15604;BME280;7902;49.042;9.092;2023-03-01T10:59:27;99566.38;;;6.16;51.17
15604;BME280;7902;49.042;9.092;2023-03-01T11:04:34;99560.56;;;6.28;51.12
15604;BME280;7902;49.042;9.092;2023-03-01T11:07:01;99558.72;;;6.30;50.48
15604;BME280;7902;49.042;9.092;2023-03-01T11:09:31;99557.72;;;6.33;50.99
15604;BME280;7902;49.042;9.092;2023-03-01T11:12:11;99550.91;;;6.30;50.99
15604;BME280;7902;49.042;9.092;2023-03-01T11:14:47;99552.94;;;6.24;51.15
15604;BME280;7902;49.042;9.092;2023-03-01T11:17:30;99544.91;;;6.28;50.80
15604;BME280;7902;49.042;9.092;2023-03-01T11:20:23;99544.78;;;6.48;50.66
15604;BME280;7902;49.042;9.092;2023-03-01T11:22:56;99531.88;;;6.45;51.00
15604;BME280;7902;49.042;9.092;2023-03-01T11:25:30;99527.91;;;6.38;50.96
15604;BME280;7902;49.042;9.092;2023-03-01T11:27:59;99526.81;;;6.42;50.64
15604;BME280;7902;49.042;9.092;2023-03-01T11:30:32;99518.53;;;6.51;50.73
15604;BME280;7902;49.042;9.092;2023-03-01T11:33:28;99519.34;;;6.53;50.43
15604;BME280;7902;49.042;9.092;2023-03-01T11:38:34;99518.53;;;6.51;50.49
15604;BME280;7902;49.042;9.092;2023-03-01T11:41:06;99503.69;;;6.53;50.76
15604;BME280;7902;49.042;9.092;2023-03-01T11:43:52;99504.66;;;6.51;50.83
15604;BME280;7902;49.042;9.092;2023-03-01T11:52:01;99494.31;;;6.67;50.65
15604;BME280;7902;49.042;9.092;2023-03-01T12:09:09;99460.94;;;6.73;50.18
15604;BME280;7902;49.042;9.092;2023-03-01T12:17:32;99443.19;;;6.80;51.01
15604;BME280;7902;49.042;9.092;2023-03-01T12:25:38;99438.09;;;6.94;51.04
15604;BME280;7902;49.042;9.092;2023-03-01T12:28:36;99421.13;;;6.85;50.95
15604;BME280;7902;49.042;9.092;2023-03-01T12:31:42;99428.25;;;6.99;50.81
15604;BME280;7902;49.042;9.092;2023-03-01T12:48:59;99412.94;;;7.09;50.30
15604;BME280;7902;49.042;9.092;2023-03-01T12:51:30;99405.03;;;7.10;50.42
15604;BME280;7902;49.042;9.092;2023-03-01T12:53:59;99408.84;;;7.20;50.64
15604;BME280;7902;49.042;9.092;2023-03-01T12:56:30;99389.00;;;7.16;50.73
15604;BME280;7902;49.042;9.092;2023-03-01T13:01:36;99376.41;;;7.24;51.02
15604;BME280;7902;49.042;9.092;2023-03-01T13:11:47;99379.63;;;7.29;50.97
15604;BME280;7902;49.042;9.092;2023-03-01T13:16:54;99373.97;;;7.37;50.67
15604;BME280;7902;49.042;9.092;2023-03-01T13:19:25;99375.66;;;7.38;50.51
15604;BME280;7902;49.042;9.092;2023-03-01T13:21:52;99367.88;;;7.36;50.52
15604;BME280;7902;49.042;9.092;2023-03-01T13:32:36;99370.50;;;7.52;50.50
15604;BME280;7902;49.042;9.092;2023-03-01T13:37:45;99364.41;;;7.67;49.88
15604;BME280;7902;49.042;9.092;2023-03-01T13:42:54;99356.84;;;7.63;50.50
15604;BME280;7902;49.042;9.092;2023-03-01T13:45:39;99356.84;;;7.63;50.37
15604;BME280;7902;49.042;9.092;2023-03-01T13:48:10;99352.59;;;7.76;50.29
15604;BME280;7902;49.042;9.092;2023-03-01T13:50:48;99351.84;;;7.74;50.50
15604;BME280;7902;49.042;9.092;2023-03-01T13:53:18;99348.88;;;7.80;50.06
15604;BME280;7902;49.042;9.092;2023-03-01T13:55:48;99339.25;;;7.80;50.76
15604;BME280;7902;49.042;9.092;2023-03-01T14:00:55;99342.41;;;8.01;50.04
15604;BME280;7902;49.042;9.092;2023-03-01T14:03:22;99335.66;;;7.97;50.02
15604;BME280;7902;49.042;9.092;2023-03-01T14:06:18;99355.31;;;8.04;49.99
15604;BME280;7902;49.042;9.092;2023-03-01T14:08:47;99349.81;;;8.09;50.11
15604;BME280;7902;49.042;9.092;2023-03-01T14:19:19;99331.88;;;8.32;49.72
15604;BME280;7902;49.042;9.092;2023-03-01T14:21:59;99332.38;;;8.23;49.45
15604;BME280;7902;49.042;9.092;2023-03-01T14:24:30;99331.25;;;8.27;49.52
15604;BME280;7902;49.042;9.092;2023-03-01T14:27:01;99328.28;;;8.33;49.30
15604;BME280;7902;49.042;9.092;2023-03-01T14:29:33;99328.28;;;8.33;49.46
15604;BME280;7902;49.042;9.092;2023-03-01T14:32:17;99331.94;;;8.31;49.29
15604;BME280;7902;49.042;9.092;2023-03-01T14:34:47;99343.28;;;8.46;49.33
15604;BME280;7902;49.042;9.092;2023-03-01T14:37:26;99333.38;;;8.36;49.54
15604;BME280;7902;49.042;9.092;2023-03-01T14:39:53;99328.84;;;8.38;49.10
15604;BME280;7902;49.042;9.092;2023-03-01T14:42:21;99339.53;;;8.50;49.18
15604;BME280;7902;49.042;9.092;2023-03-01T14:44:50;99338.41;;;8.54;48.79
15604;BME280;7902;49.042;9.092;2023-03-01T14:47:26;99348.81;;;8.55;48.92
15604;BME280;7902;49.042;9.092;2023-03-01T14:50:07;99356.28;;;8.47;48.99
15604;BME280;7902;49.042;9.092;2023-03-01T14:52:36;99356.28;;;8.47;48.84
15604;BME280;7902;49.042;9.092;2023-03-01T14:55:06;99355.44;;;8.47;49.19
15604;BME280;7902;49.042;9.092;2023-03-01T14:57:33;99365.72;;;8.50;48.87
15604;BME280;7902;49.042;9.092;2023-03-01T15:00:00;99358.63;;;8.52;49.06
15604;BME280;7902;49.042;9.092;2023-03-01T15:02:31;99360.81;;;8.44;49.11
15604;BME280;7902;49.042;9.092;2023-03-01T15:05:01;99352.25;;;8.56;48.98
15604;BME280;7902;49.042;9.092;2023-03-01T15:07:35;99365.44;;;8.54;48.94
15604;BME280;7902;49.042;9.092;2023-03-01T15:10:06;99354.13;;;8.54;48.78
15604;BME280;7902;49.042;9.092;2023-03-01T15:12:37;99361.03;;;8.41;48.83
15604;BME280;7902;49.042;9.092;2023-03-01T15:15:37;99366.75;;;8.47;49.02
15604;BME280;7902;49.042;9.092;2023-03-01T15:18:17;99360.75;;;8.45;48.64
15604;BME280;7902;49.042;9.092;2023-03-01T15:20:43;99361.41;;;8.49;48.90
15604;BME280;7902;49.042;9.092;2023-03-01T15:23:26;99359.25;;;8.41;48.99
15604;BME280;7902;49.042;9.092;2023-03-01T15:25:54;99362.88;;;8.38;48.51
15604;BME280;7902;49.042;9.092;2023-03-01T15:28:27;99362.16;;;8.51;49.00
15604;BME280;7902;49.042;9.092;2023-03-01T15:31:18;99351.34;;;8.57;48.85
15604;BME280;7902;49.042;9.092;2023-03-01T15:33:46;99352.53;;;8.51;48.96
15604;BME280;7902;49.042;9.092;2023-03-01T15:38:58;99355.44;;;8.47;48.66